createdAt,value
2019-02-14T00:00:53.887Z,101291.14
2019-02-14T00:03:24.049Z,101288.55
2019-02-14T00:05:53.289Z,101287.80
2019-02-14T00:08:23.930Z,101278.65
2019-02-14T00:10:53.499Z,101271.97
2019-02-14T00:13:22.524Z,101272.56
2019-02-14T00:15:51.555Z,101271.77
2019-02-14T00:18:20.395Z,101274.39
2019-02-14T00:20:50.521Z,101263.91
2019-02-14T00:23:26.520Z,101268.80
2019-02-14T00:25:57.215Z,101270.06
2019-02-14T00:28:26.019Z,101278.55
2019-02-14T00:30:55.168Z,101271.53
2019-02-14T00:33:24.255Z,101267.44
2019-02-14T00:35:54.294Z,101261.80
2019-02-14T00:38:23.121Z,101256.12
2019-02-14T00:40:51.866Z,101257.89
2019-02-14T00:43:20.533Z,101260.83
2019-02-14T00:45:49.348Z,101267.57
2019-02-14T00:48:18.597Z,101270.17
2019-02-14T00:50:47.209Z,101264.25
2019-02-14T00:53:16.086Z,101268.53
2019-02-14T00:55:44.883Z,101266.49
2019-02-14T00:58:13.715Z,101259.06
2019-02-14T01:00:42.148Z,101261.98
2019-02-14T01:03:12.340Z,101263.86
2019-02-14T01:05:40.927Z,101256.27
2019-02-14T01:08:09.827Z,101252.25
2019-02-14T01:10:38.729Z,101258.39
2019-02-14T01:13:07.132Z,101259.52
2019-02-14T01:15:37.261Z,101263.20
2019-02-14T01:18:05.827Z,101262.14
2019-02-14T01:20:34.343Z,101262.98
2019-02-14T01:23:03.020Z,101238.70
2019-02-14T01:25:31.466Z,101268.16
2019-02-14T01:27:59.870Z,101259.86
2019-02-14T01:30:28.304Z,101264.22
2019-02-14T01:32:58.421Z,101268.06
2019-02-14T01:35:27.502Z,101271.78
2019-02-14T01:37:56.327Z,101271.05
2019-02-14T01:40:24.684Z,101269.92
2019-02-14T01:42:54.910Z,101264.55
2019-02-14T01:45:23.596Z,101265.63
2019-02-14T01:47:52.078Z,101261.15
2019-02-14T01:50:20.450Z,101258.65
2019-02-14T01:52:48.867Z,101253.31
2019-02-14T01:55:17.505Z,101256.95
2019-02-14T01:57:45.974Z,101251.33
2019-02-14T02:00:16.111Z,101249.42
2019-02-14T02:02:44.605Z,101251.14
2019-02-14T02:05:17.357Z,101250.47
2019-02-14T02:07:46.037Z,101251.47
2019-02-14T02:10:14.556Z,101239.73
2019-02-14T02:12:43.024Z,101240.34
2019-02-14T02:15:13.599Z,101237.95
2019-02-14T02:17:42.070Z,101234.89
2019-02-14T02:20:11.573Z,101228.92
2019-02-14T02:22:39.994Z,101220.31
2019-02-14T02:25:10.855Z,101226.45
2019-02-14T02:27:39.338Z,101222.48
2019-02-14T02:30:11.057Z,101227.47
2019-02-14T02:32:39.533Z,101219.73
2019-02-14T02:35:08.546Z,101221.02
2019-02-14T02:37:36.984Z,101219.23
2019-02-14T02:40:08.104Z,101219.66
2019-02-14T02:42:36.467Z,101221.83
2019-02-14T02:45:10.856Z,101220.16
2019-02-14T02:47:39.374Z,101215.69
2019-02-14T02:50:10.438Z,101215.98
2019-02-14T02:52:38.884Z,101214.38
2019-02-14T02:55:09.423Z,101208.76
2019-02-14T02:57:37.795Z,101206.23
2019-02-14T03:00:12.241Z,101203.63
2019-02-14T03:02:40.683Z,101204.89
2019-02-14T03:05:11.331Z,101210.20
2019-02-14T03:07:39.697Z,101211.44
2019-02-14T03:10:13.284Z,101213.56
2019-02-14T03:12:41.802Z,101218.74
2019-02-14T03:15:12.739Z,101216.47
2019-02-14T03:18:02.269Z,101217.86
2019-02-14T03:20:30.748Z,101213.73
2019-02-14T03:22:59.121Z,101213.73
2019-02-14T03:25:27.592Z,101209.78
2019-02-14T03:27:55.976Z,101210.99
2019-02-14T03:30:24.379Z,101210.78
2019-02-14T03:32:52.745Z,101220.25
2019-02-14T03:35:21.220Z,101212.98
2019-02-14T03:37:49.665Z,101212.98
2019-02-14T03:40:18.090Z,101210.80
2019-02-14T03:42:46.521Z,101215.91
2019-02-14T03:45:16.865Z,101212.92
2019-02-14T03:47:45.306Z,101214.52
2019-02-14T03:50:14.457Z,101212.81
2019-02-14T03:52:42.894Z,101219.20
2019-02-14T03:55:11.670Z,101222.64
2019-02-14T03:57:40.183Z,101216.25
2019-02-14T04:00:16.658Z,101218.78
2019-02-14T04:02:45.108Z,101221.78
2019-02-14T04:05:13.643Z,101229.41
2019-02-14T04:07:42.015Z,101232.28
2019-02-14T04:10:12.701Z,101226.97
2019-02-14T04:12:41.145Z,101233.30
2019-02-14T04:15:13.021Z,101242.22
2019-02-14T04:17:41.455Z,101237.03
2019-02-14T04:20:11.106Z,101244.33
2019-02-14T04:22:39.543Z,101244.33
2019-02-14T04:25:09.484Z,101241.70
2019-02-14T04:27:37.855Z,101242.19
2019-02-14T04:30:09.473Z,101240.23
2019-02-14T04:32:37.835Z,101247.37
2019-02-14T04:35:06.576Z,101253.38
2019-02-14T04:37:35.023Z,101253.35
2019-02-14T04:40:04.261Z,101255.13
2019-02-14T04:42:32.704Z,101255.93
2019-02-14T04:45:01.106Z,101255.05
2019-02-14T04:47:29.615Z,101259.02
2019-02-14T04:49:58.806Z,101253.30
2019-02-14T04:52:27.170Z,101254.53
2019-02-14T04:54:55.606Z,101252.80
2019-02-14T04:57:23.984Z,101248.11
2019-02-14T04:59:52.386Z,101255.56
2019-02-14T05:02:20.883Z,101255.47
2019-02-14T05:04:49.649Z,101250.05
2019-02-14T05:07:18.063Z,101251.31
2019-02-14T05:09:48.308Z,101251.31
2019-02-14T05:12:16.678Z,101261.28
2019-02-14T05:14:45.246Z,101246.47
2019-02-14T05:17:15.314Z,101251.92
2019-02-14T05:19:43.715Z,101255.63
2019-02-14T05:22:12.268Z,101247.14
2019-02-14T05:24:40.733Z,101247.14
2019-02-14T05:27:09.180Z,101246.58
2019-02-14T05:29:37.648Z,101244.13
2019-02-14T05:32:06.200Z,101249.95
2019-02-14T05:34:34.683Z,101253.48
2019-02-14T05:37:03.431Z,101261.92
2019-02-14T05:39:32.324Z,101265.39
2019-02-14T05:42:01.363Z,101307.07
2019-02-14T05:44:29.851Z,101261.91
2019-02-14T05:46:58.415Z,101265.41
2019-02-14T05:49:27.209Z,101264.19
2019-02-14T05:51:56.119Z,101263.95
2019-02-14T05:54:24.561Z,101262.87
2019-02-14T05:56:53.089Z,101268.16
2019-02-14T05:59:21.553Z,101261.84
2019-02-14T06:01:49.979Z,101277.03
2019-02-14T06:04:18.453Z,101277.03
2019-02-14T06:06:46.830Z,101272.46
2019-02-14T06:09:16.584Z,101278.38
2019-02-14T06:11:44.964Z,101285.61
2019-02-14T06:14:13.377Z,101296.20
2019-02-14T06:16:41.904Z,101296.56
2019-02-14T06:19:11.225Z,101302.20
2019-02-14T06:21:39.745Z,101299.53
2019-02-14T06:24:09.073Z,101306.67
2019-02-14T06:26:37.550Z,101302.42
2019-02-14T06:29:06.160Z,101302.42
2019-02-14T06:31:34.582Z,101313.56
2019-02-14T06:34:03.016Z,101314.59
2019-02-14T06:36:32.164Z,101311.83
2019-02-14T06:39:00.523Z,101320.55
2019-02-14T06:41:28.932Z,101325.03
2019-02-14T06:43:57.312Z,101325.48
2019-02-14T06:46:25.976Z,101319.30
2019-02-14T06:48:54.492Z,101316.84
2019-02-14T06:51:23.305Z,101325.53
2019-02-14T06:53:51.695Z,101326.31
2019-02-14T06:56:20.097Z,101328.22
2019-02-14T06:58:50.659Z,101328.16
2019-02-14T07:01:19.074Z,101336.52
2019-02-14T07:03:47.466Z,101341.59
2019-02-14T07:06:15.872Z,101334.20
2019-02-14T07:08:44.305Z,101335.79
2019-02-14T07:11:13.574Z,101344.19
2019-02-14T07:13:42.037Z,101343.74
2019-02-14T07:16:10.452Z,101351.03
2019-02-14T07:18:38.963Z,101351.34
2019-02-14T07:21:07.372Z,101363.94
2019-02-14T07:23:35.810Z,101359.30
2019-02-14T07:26:04.283Z,101360.74
2019-02-14T07:28:34.422Z,101360.74
2019-02-14T07:31:03.077Z,101349.58
2019-02-14T07:33:31.447Z,101357.59
2019-02-14T07:35:59.869Z,101351.62
2019-02-14T07:38:28.248Z,101351.80
2019-02-14T07:40:56.643Z,101362.73
2019-02-14T07:43:25.085Z,101367.26
2019-02-14T07:45:53.580Z,101364.09
2019-02-14T07:48:21.940Z,101371.02
2019-02-14T07:50:50.338Z,101363.45
2019-02-14T07:53:18.702Z,101364.47
2019-02-14T07:55:47.154Z,101364.83
2019-02-14T07:58:15.615Z,101370.42
2019-02-14T08:00:43.980Z,101372.75
2019-02-14T08:03:12.397Z,101369.47
2019-02-14T08:05:40.820Z,101376.83
2019-02-14T08:08:09.223Z,101374.77
2019-02-14T08:10:37.589Z,101372.66
2019-02-14T08:13:06.067Z,101371.77
2019-02-14T08:15:34.489Z,101369.77
2019-02-14T08:18:03.149Z,101365.90
2019-02-14T08:20:31.577Z,101375.61
2019-02-14T08:23:00.060Z,101362.77
2019-02-14T08:25:28.426Z,101363.33
2019-02-14T08:29:52.855Z,101357.67
2019-02-14T08:32:21.250Z,101358.13
2019-02-14T08:34:49.623Z,101356.13
2019-02-14T08:37:18.223Z,101362.33
2019-02-14T08:39:46.564Z,101362.78
2019-02-14T08:42:15.036Z,101370.14
2019-02-14T08:44:43.414Z,101370.72
2019-02-14T08:47:11.829Z,101376.00
2019-02-14T08:49:40.222Z,101369.20
2019-02-14T08:52:08.666Z,101370.55
2019-02-14T08:54:37.104Z,101371.48
2019-02-14T08:57:05.476Z,101380.73
2019-02-14T08:59:33.976Z,101367.85
2019-02-14T09:02:02.469Z,101376.14
2019-02-14T09:04:30.929Z,101376.22
2019-02-14T09:06:59.299Z,101380.63
2019-02-14T09:09:27.695Z,101389.77
2019-02-14T09:11:56.134Z,101389.41
2019-02-14T09:14:24.609Z,101385.55
2019-02-14T09:16:53.069Z,101388.30
2019-02-14T09:19:21.560Z,101388.81
2019-02-14T09:21:50.021Z,101397.09
2019-02-14T09:24:18.481Z,101385.10
2019-02-14T09:26:46.842Z,101383.44
2019-02-14T09:29:15.321Z,101382.22
2019-02-14T09:31:43.705Z,101377.14
2019-02-14T09:34:12.095Z,101376.77
2019-02-14T09:36:40.592Z,101370.77
2019-02-14T09:39:08.996Z,101375.57
2019-02-14T09:41:37.364Z,101379.95
2019-02-14T09:44:05.859Z,101376.08
2019-02-14T09:46:34.284Z,101382.16
2019-02-14T09:49:02.714Z,101382.64
2019-02-14T09:51:31.164Z,101387.02
2019-02-14T09:53:59.644Z,101386.18
2019-02-14T09:56:28.069Z,101378.41
2019-02-14T09:58:56.531Z,101378.92
2019-02-14T10:01:25.068Z,101372.45
2019-02-14T10:03:53.459Z,101381.14
2019-02-14T10:06:21.906Z,101369.95
2019-02-14T10:08:52.901Z,101368.23
2019-02-14T10:11:21.348Z,101368.72
2019-02-14T10:13:49.808Z,101371.72
2019-02-14T10:16:18.177Z,101365.27
2019-02-14T10:18:46.671Z,101364.46
2019-02-14T10:21:15.109Z,101366.19
2019-02-14T10:23:43.476Z,101363.18
2019-02-14T10:26:12.013Z,101364.91
2019-02-14T10:28:40.442Z,101368.38
2019-02-14T10:31:08.848Z,101368.38
2019-02-14T10:33:37.383Z,101366.64
2019-02-14T10:36:05.846Z,101366.20
2019-02-14T10:38:34.286Z,101373.12
2019-02-14T10:41:02.755Z,101372.22
2019-02-14T10:43:31.188Z,101373.91
2019-02-14T10:45:59.590Z,101373.40
2019-02-14T10:48:27.943Z,101371.64
2019-02-14T10:50:56.508Z,101369.42
2019-02-14T10:53:24.881Z,101360.68
2019-02-14T10:55:53.339Z,101352.84
2019-02-14T10:58:21.708Z,101353.65
2019-02-14T11:00:50.247Z,101348.80
2019-02-14T11:03:18.680Z,101344.39
2019-02-14T11:05:47.139Z,101342.55
2019-02-14T11:08:15.540Z,101342.49
2019-02-14T11:10:43.995Z,101339.91
2019-02-14T11:13:12.371Z,101344.17
2019-02-14T11:15:40.817Z,101342.11
2019-02-14T11:18:09.348Z,101336.00
2019-02-14T11:20:37.740Z,101336.48
2019-02-14T11:23:06.152Z,101329.98
2019-02-14T11:25:36.309Z,101331.45
2019-02-14T11:28:04.736Z,101324.08
2019-02-14T11:30:33.408Z,101320.21
2019-02-14T11:33:01.878Z,101317.97
2019-02-14T11:35:30.340Z,101314.63
2019-02-14T11:37:58.711Z,101317.52
2019-02-14T11:40:27.148Z,101310.36
2019-02-14T11:42:55.602Z,101309.27
2019-02-14T11:45:25.421Z,101297.67
2019-02-14T11:47:53.892Z,101291.84
2019-02-14T11:50:22.323Z,101286.97
2019-02-14T11:52:50.730Z,101297.08
2019-02-14T11:55:19.156Z,101286.62
2019-02-14T11:57:47.614Z,101278.78
2019-02-14T12:00:26.425Z,101273.70
2019-02-14T12:02:56.167Z,101276.58
2019-02-14T12:05:24.907Z,101276.56
2019-02-14T12:07:53.391Z,101271.52
2019-02-14T12:10:21.900Z,101269.95
2019-02-14T12:12:50.294Z,101269.59
2019-02-14T12:15:18.806Z,101267.13
2019-02-14T12:17:47.265Z,101272.84
2019-02-14T12:20:16.595Z,101261.46
2019-02-14T12:22:47.012Z,101259.58
2019-02-14T12:25:23.613Z,101257.54
2019-02-14T12:27:52.146Z,101261.31
2019-02-14T12:30:20.582Z,101249.55
2019-02-14T12:32:49.108Z,101250.56
2019-02-14T12:35:17.534Z,101248.17
2019-02-14T12:37:46.681Z,101239.27
2019-02-14T12:40:15.110Z,101243.49
2019-02-14T12:42:43.642Z,101239.66
2019-02-14T12:45:21.487Z,101233.98
2019-02-14T12:47:47.839Z,101226.94
2019-02-14T12:50:19.182Z,101218.38
2019-02-14T12:52:47.680Z,101217.56
2019-02-14T12:55:16.478Z,101207.08
2019-02-14T12:57:44.939Z,101209.27
2019-02-14T13:00:22.028Z,101209.52
2019-02-14T13:02:50.508Z,101201.36
2019-02-14T13:05:19.380Z,101196.40
2019-02-14T13:07:47.763Z,101192.72
2019-02-14T13:10:17.675Z,101189.25
2019-02-14T13:12:46.149Z,101186.37
2019-02-14T13:15:23.435Z,101187.53
2019-02-14T13:17:51.990Z,101174.47
2019-02-14T13:20:20.700Z,101164.00
2019-02-14T13:22:52.179Z,101169.62
2019-02-14T13:25:22.334Z,101165.80
2019-02-14T13:27:53.915Z,101160.74
2019-02-14T13:30:27.235Z,101158.01
2019-02-14T13:32:55.721Z,101163.22
2019-02-14T13:35:24.240Z,101150.45
2019-02-14T13:37:52.794Z,101149.27
2019-02-14T13:40:22.504Z,101146.92
2019-02-14T13:42:50.885Z,101143.07
2019-02-14T13:45:23.285Z,101141.41
2019-02-14T13:47:51.709Z,101144.48
2019-02-14T13:50:20.187Z,101146.99
2019-02-14T13:52:48.680Z,101143.95
2019-02-14T13:55:20.567Z,101140.85
2019-02-14T13:57:49.068Z,101138.83
2019-02-14T14:00:30.310Z,101139.79
2019-02-14T14:03:01.616Z,101137.58
2019-02-14T14:05:30.403Z,101125.48
2019-02-14T14:07:58.899Z,101124.22
2019-02-14T14:10:27.994Z,101125.05
2019-02-14T14:12:56.567Z,101129.79
2019-02-14T14:15:25.929Z,101123.09
2019-02-14T14:17:56.411Z,101108.50
2019-02-14T14:20:26.224Z,101104.58
2019-02-14T14:22:54.719Z,101101.47
2019-02-14T14:25:25.836Z,101103.00
2019-02-14T14:27:54.891Z,101098.25
2019-02-14T14:30:23.349Z,101097.29
2019-02-14T14:32:51.775Z,101097.58
2019-02-14T14:35:20.240Z,101097.59
2019-02-14T14:37:48.869Z,101093.58
2019-02-14T14:40:20.323Z,101091.39
2019-02-14T14:42:53.504Z,101093.12
2019-02-14T14:45:29.336Z,101097.03
2019-02-14T14:47:57.765Z,101093.74
2019-02-14T14:50:26.174Z,101092.95
2019-02-14T14:52:54.537Z,101097.38
2019-02-14T14:55:23.011Z,101091.77
2019-02-14T14:57:51.396Z,101083.73
2019-02-14T15:00:19.861Z,101084.80
2019-02-14T15:02:48.292Z,101080.12
2019-02-14T15:05:16.738Z,101075.83
2019-02-14T15:07:45.107Z,101079.75
2019-02-14T15:10:13.483Z,101075.66
2019-02-14T15:12:41.836Z,101071.56
2019-02-14T15:15:10.218Z,101067.44
2019-02-14T15:17:38.585Z,101070.45
2019-02-14T15:20:09.587Z,101067.66
2019-02-14T15:22:37.938Z,101062.69
2019-02-14T15:25:06.975Z,101061.78
2019-02-14T15:27:35.609Z,101057.14
2019-02-14T15:30:05.054Z,101052.08
2019-02-14T15:32:33.547Z,101045.33
2019-02-14T15:35:02.021Z,101043.46
2019-02-14T15:37:30.565Z,101048.05
2019-02-14T15:40:08.826Z,101042.32
2019-02-14T15:42:29.679Z,101041.55
2019-02-14T15:44:58.409Z,101036.36
2019-02-14T15:47:27.075Z,101034.50
2019-02-14T15:49:55.722Z,101028.34
2019-02-14T15:52:24.288Z,101035.87
2019-02-14T15:54:53.003Z,101025.22
2019-02-14T15:57:21.766Z,101034.83
2019-02-14T15:59:50.456Z,101035.81
2019-02-14T16:02:19.560Z,101030.64
2019-02-14T16:04:48.264Z,101033.72
2019-02-14T16:07:20.630Z,101034.16
2019-02-14T16:09:49.532Z,101041.14
2019-02-14T16:12:19.978Z,101033.23
2019-02-14T16:14:49.728Z,101044.14
2019-02-14T16:17:18.594Z,101039.45
2019-02-14T16:19:59.666Z,101037.36
2019-02-14T16:22:30.235Z,101034.03
2019-02-14T16:25:02.597Z,101037.63
2019-02-14T16:27:34.511Z,101029.12
2019-02-14T16:30:05.426Z,101031.59
2019-02-14T16:32:35.243Z,101037.91
2019-02-14T16:35:07.077Z,101032.88
2019-02-14T16:37:37.324Z,101030.23
2019-02-14T16:40:12.420Z,101031.77
2019-02-14T16:42:41.420Z,101032.69
2019-02-14T16:45:10.033Z,101029.16
2019-02-14T16:47:42.124Z,101041.37
2019-02-14T16:50:12.617Z,101042.11
2019-02-14T16:52:41.249Z,101046.59
2019-02-14T16:55:10.163Z,101045.84
2019-02-14T16:57:45.999Z,101049.55
2019-02-14T17:00:15.228Z,101060.41
2019-02-14T17:02:44.185Z,101058.20
2019-02-14T17:05:12.969Z,101061.92
2019-02-14T17:07:47.481Z,101061.50
2019-02-14T17:10:16.000Z,101065.80
2019-02-14T17:12:44.901Z,101068.66
2019-02-14T17:15:13.399Z,101068.20
2019-02-14T17:17:42.480Z,101074.55
2019-02-14T17:20:11.561Z,101067.66
2019-02-14T17:22:42.906Z,101069.95
2019-02-14T17:25:11.792Z,101067.80
2019-02-14T17:27:44.148Z,101069.52
2019-02-14T17:30:12.648Z,101068.47
2019-02-14T17:32:42.107Z,101063.86
2019-02-14T17:35:12.488Z,101065.95
2019-02-14T17:37:42.853Z,101069.72
2019-02-14T17:40:11.280Z,101067.13
2019-02-14T17:42:44.323Z,101069.11
2019-02-14T17:45:14.233Z,101065.00
2019-02-14T17:47:47.088Z,101071.61
2019-02-14T17:50:17.605Z,101072.36
2019-02-14T17:52:45.972Z,101076.49
2019-02-14T17:55:15.733Z,101072.27
2019-02-14T17:57:44.350Z,101079.27
2019-02-14T18:00:14.348Z,101079.11
2019-02-14T18:02:42.937Z,101079.38
2019-02-14T18:05:11.383Z,101076.07
2019-02-14T18:07:41.794Z,101083.09
2019-02-14T18:10:13.582Z,101075.70
2019-02-14T18:12:44.040Z,101081.31
2019-02-14T18:15:19.987Z,101083.17
2019-02-14T18:17:48.258Z,101084.78
2019-02-14T18:20:18.908Z,101089.52
2019-02-14T18:22:49.814Z,101094.37
2019-02-14T18:25:18.751Z,101083.80
2019-02-14T18:27:55.570Z,101085.20
2019-02-14T18:30:24.025Z,101082.52
2019-02-14T18:32:52.892Z,101079.95
2019-02-14T18:35:21.482Z,101084.13
2019-02-14T18:37:49.827Z,101081.06
2019-02-14T18:40:18.290Z,101085.30
2019-02-14T18:42:49.666Z,101088.76
2019-02-14T18:45:18.050Z,101089.98
2019-02-14T18:47:46.399Z,101083.50
2019-02-14T18:50:15.188Z,101087.84
2019-02-14T18:52:43.577Z,101088.63
2019-02-14T18:55:12.323Z,101079.95
2019-02-14T18:57:41.064Z,101086.55
2019-02-14T19:00:17.527Z,101092.11
2019-02-14T19:02:45.878Z,101088.67
2019-02-14T19:05:14.329Z,101093.06
2019-02-14T19:07:42.683Z,101091.66
2019-02-14T19:10:15.728Z,101092.19
2019-02-14T19:12:44.150Z,101087.30
2019-02-14T19:15:13.503Z,101087.36
2019-02-14T19:17:41.881Z,101083.60
2019-02-14T19:20:11.312Z,101086.12
2019-02-14T19:22:40.927Z,101087.76
2019-02-14T19:25:09.515Z,101084.22
2019-02-14T19:27:37.868Z,101085.47
2019-02-14T19:30:11.117Z,101090.74
2019-02-14T19:32:39.759Z,101089.48
2019-02-14T19:35:09.381Z,101092.61
2019-02-14T19:37:37.728Z,101087.53
2019-02-14T19:40:10.512Z,101092.70
2019-02-14T19:42:38.858Z,101097.84
2019-02-14T19:45:10.761Z,101095.82
2019-02-14T19:47:39.182Z,101096.27
2019-02-14T19:50:10.818Z,101097.60
2019-02-14T19:52:39.164Z,101105.36
2019-02-14T19:55:09.285Z,101103.16
2019-02-14T19:57:37.849Z,101097.53
2019-02-14T20:00:09.722Z,101090.19
2019-02-14T20:02:38.083Z,101090.63
2019-02-14T20:05:07.948Z,101086.75
2019-02-14T20:07:36.478Z,101083.34
2019-02-14T20:10:08.095Z,101085.52
2019-02-14T20:12:36.552Z,101091.13
2019-02-14T20:15:08.500Z,101085.94
2019-02-14T20:17:36.970Z,101088.08
2019-02-14T20:20:07.965Z,101088.13
2019-02-14T20:22:36.347Z,101093.30
2019-02-14T20:25:07.209Z,101091.55
2019-02-14T20:27:35.589Z,101086.78
2019-02-14T20:30:05.685Z,101090.70
2019-02-14T20:32:34.063Z,101086.82
2019-02-14T20:35:02.434Z,101087.69
2019-02-14T20:37:30.803Z,101093.29
2019-02-14T20:39:59.339Z,101089.41
2019-02-14T20:42:27.724Z,101097.61
2019-02-14T20:44:56.834Z,101098.06
2019-02-14T20:47:25.385Z,101098.03
2019-02-14T20:49:56.539Z,101101.86
2019-02-14T20:52:24.997Z,101101.82
2019-02-14T20:54:53.353Z,101103.91
2019-02-14T20:57:21.737Z,101099.61
2019-02-14T20:59:50.085Z,101103.48
2019-02-14T21:02:20.050Z,101103.97
2019-02-14T21:04:50.050Z,101102.27
2019-02-14T21:07:19.592Z,101104.47
2019-02-14T21:09:48.537Z,101102.25
2019-02-14T21:12:16.890Z,101100.23
2019-02-14T21:14:45.694Z,101101.42
2019-02-14T21:17:14.121Z,101103.19
2019-02-14T21:19:42.504Z,101100.59
2019-02-14T21:22:18.373Z,101105.81
2019-02-14T21:24:41.048Z,101109.75
2019-02-14T21:27:09.469Z,101112.88
2019-02-14T21:29:38.155Z,101111.52
2019-02-14T21:32:06.573Z,101109.40
2019-02-14T21:34:34.947Z,101100.91
2019-02-14T21:37:03.777Z,101100.47
2019-02-14T21:39:32.174Z,101100.45
2019-02-14T21:42:18.595Z,101102.52
2019-02-14T21:44:33.707Z,101091.11
2019-02-14T21:47:03.821Z,101093.58
2019-02-14T21:49:32.305Z,101085.05
2019-02-14T21:52:02.745Z,101089.17
2019-02-14T21:54:31.308Z,101084.59
2019-02-14T21:56:59.798Z,101084.97
2019-02-14T21:59:28.570Z,101087.69
2019-02-14T22:01:57.019Z,101088.14
2019-02-14T22:04:25.546Z,101088.94
2019-02-14T22:06:54.133Z,101085.88
2019-02-14T22:09:22.661Z,101084.00
2019-02-14T22:11:52.739Z,101081.16
2019-02-14T22:14:21.191Z,101088.96
2019-02-14T22:16:49.558Z,101080.25
2019-02-14T22:19:18.053Z,101079.84
2019-02-14T22:21:51.352Z,101076.77
2019-02-14T22:24:21.737Z,101075.91
2019-02-14T22:26:50.331Z,101074.58
2019-02-14T22:29:21.995Z,101076.76
2019-02-14T22:31:52.446Z,101069.43
2019-02-14T22:34:21.185Z,101069.92
2019-02-14T22:36:49.834Z,101068.59
2019-02-14T22:39:18.331Z,101068.55
2019-02-14T22:41:47.112Z,101065.41
2019-02-14T22:44:16.115Z,101067.64
2019-02-14T22:46:45.019Z,101068.15
2019-02-14T22:49:13.787Z,101069.53
2019-02-14T22:51:43.225Z,101065.61
2019-02-14T22:54:11.581Z,101070.80
2019-02-14T22:56:40.110Z,101069.51
2019-02-14T22:59:08.873Z,101064.00
2019-02-14T23:01:39.280Z,101066.27
2019-02-14T23:04:07.960Z,101068.41
2019-02-14T23:06:36.349Z,101069.28
2019-02-14T23:09:07.784Z,101068.84
2019-02-14T23:11:36.472Z,101072.27
2019-02-14T23:14:05.676Z,101067.89
2019-02-14T23:16:34.201Z,101073.29
2019-02-14T23:19:02.559Z,101077.74
2019-02-14T23:21:33.662Z,101068.58
2019-02-14T23:24:02.517Z,101066.87
2019-02-14T23:26:35.240Z,101073.03
2019-02-14T23:29:04.724Z,101074.04
2019-02-14T23:31:33.854Z,101069.52
2019-02-14T23:34:05.768Z,101073.59
2019-02-14T23:36:34.643Z,101076.67
2019-02-14T23:39:04.793Z,101073.17
2019-02-14T23:41:34.185Z,101081.45
2019-02-14T23:44:05.284Z,101079.81
2019-02-14T23:46:33.977Z,101077.09
2019-02-14T23:49:02.930Z,101075.39
2019-02-14T23:51:31.681Z,101078.47
2019-02-14T23:54:00.547Z,101075.59
2019-02-14T23:56:30.533Z,101073.58
2019-02-14T23:59:00.583Z,101076.12
